ARG1218 SABE-SBBR
Flight info
| Callsign | ARG1218 |
|---|---|
| Flight time | 2h 58m |
| Altitude | FL330 |
| Route | KUKEN8 KUKEN UL324 CUARA UM532 ILPAV IRUL1A |
| Aircraft | B38M/M-SDE2E3FGHIRWXY/LB1 |
Departure
| Time | 2026-05-07 16:28 |
|---|---|
| Airport | Aeroparque Jorge Newbery (SABE) |
Arrival
| Time | 2026-05-07 19:26 |
|---|---|
| Airport | Presidente Juscelino Kubitschek International Airport (SBBR) |
| Time | Latitude | Longitude | Altitude | Speed | Heading |
|---|---|---|---|---|---|
| 2026-05-07 16:02 | -34.55682 | -58.41487 | 28 ft | 0 kts | 13° |
| 2026-05-07 16:13 | -34.55701 | -58.41491 | 47 ft | 4 kts | 359° |
| 2026-05-07 16:13 | -34.55725 | -58.41483 | 28 ft | 4 kts | 324° |
| 2026-05-07 16:14 | -34.55742 | -58.41459 | 28 ft | 4 kts | 299° |
| 2026-05-07 16:14 | -34.55750 | -58.41442 | 28 ft | 0 kts | 298° |
| 2026-05-07 16:19 | -34.55748 | -58.41448 | 28 ft | 2 kts | 298° |
| 2026-05-07 16:19 | -34.55731 | -58.41484 | 28 ft | 8 kts | 298° |
| 2026-05-07 16:20 | -34.55726 | -58.41549 | 28 ft | 8 kts | 242° |
| 2026-05-07 16:20 | -34.55785 | -58.41583 | 28 ft | 11 kts | 181° |
| 2026-05-07 16:20 | -34.55834 | -58.41517 | 28 ft | 14 kts | 118° |
| 2026-05-07 16:20 | -34.55886 | -58.41391 | 28 ft | 18 kts | 116° |
| 2026-05-07 16:21 | -34.55951 | -58.41257 | 28 ft | 19 kts | 127° |
| 2026-05-07 16:21 | -34.56035 | -58.41124 | 28 ft | 21 kts | 127° |
| 2026-05-07 16:21 | -34.56095 | -58.41029 | 28 ft | 14 kts | 127° |
| 2026-05-07 16:21 | -34.56150 | -58.40932 | 28 ft | 14 kts | 120° |
| 2026-05-07 16:22 | -34.56180 | -58.40822 | 28 ft | 14 kts | 114° |
| 2026-05-07 16:22 | -34.56232 | -58.40723 | 28 ft | 14 kts | 125° |
| 2026-05-07 16:22 | -34.56281 | -58.40634 | 28 ft | 13 kts | 124° |
| 2026-05-07 16:22 | -34.56341 | -58.40550 | 28 ft | 14 kts | 136° |
| 2026-05-07 16:23 | -34.56413 | -58.40472 | 28 ft | 13 kts | 138° |
| 2026-05-07 16:23 | -34.56426 | -58.40458 | 28 ft | 0 kts | 138° |
| 2026-05-07 16:24 | -34.56427 | -58.40456 | 28 ft | 1 kts | 138° |
| 2026-05-07 16:25 | -34.56453 | -58.40427 | 28 ft | 10 kts | 138° |
| 2026-05-07 16:25 | -34.56532 | -58.40390 | 28 ft | 16 kts | 196° |
| 2026-05-07 16:25 | -34.56549 | -58.40467 | 28 ft | 11 kts | 314° |
| 2026-05-07 16:25 | -34.56526 | -58.40500 | 28 ft | 0 kts | 303° |
| 2026-05-07 16:27 | -34.56525 | -58.40501 | 28 ft | 2 kts | 303° |
| 2026-05-07 16:27 | -34.56404 | -58.40720 | 28 ft | 66 kts | 304° |
| 2026-05-07 16:27 | -34.56028 | -58.41392 | 28 ft | 125 kts | 304° |
| 2026-05-07 16:27 | -34.55456 | -58.42429 | 67 ft | 163 kts | 302° |
| 2026-05-07 16:28 | -34.54851 | -58.43466 | 734 ft | 153 kts | 301° |
| 2026-05-07 16:28 | -34.54194 | -58.44614 | 990 ft | 173 kts | 311° |
| 2026-05-07 16:28 | -34.53161 | -58.45326 | 1602 ft | 176 kts | 347° |
| 2026-05-07 16:28 | -34.51879 | -58.45176 | 2000 ft | 200 kts | 20° |
| 2026-05-07 16:29 | -34.50637 | -58.44278 | 2488 ft | 220 kts | 28° |
| 2026-05-07 16:29 | -34.49280 | -58.43248 | 3074 ft | 237 kts | 28° |
| 2026-05-07 16:29 | -34.47848 | -58.42172 | 3886 ft | 246 kts | 28° |
| 2026-05-07 16:29 | -34.46363 | -58.41067 | 4706 ft | 259 kts | 28° |
| 2026-05-07 16:30 | -34.44795 | -58.39907 | 5464 ft | 270 kts | 28° |
| 2026-05-07 16:30 | -34.43194 | -58.38717 | 6340 ft | 271 kts | 28° |
| 2026-05-07 16:30 | -34.41582 | -58.37514 | 7162 ft | 275 kts | 28° |
| 2026-05-07 16:30 | -34.39947 | -58.36296 | 7962 ft | 278 kts | 28° |
| 2026-05-07 16:31 | -34.38292 | -58.35061 | 8790 ft | 281 kts | 28° |
| 2026-05-07 16:31 | -34.36630 | -58.33821 | 9567 ft | 285 kts | 28° |
| 2026-05-07 16:31 | -34.34973 | -58.32588 | 10106 ft | 296 kts | 27° |
| 2026-05-07 16:31 | -34.33161 | -58.31241 | 10398 ft | 316 kts | 27° |
| 2026-05-07 16:32 | -34.31239 | -58.29814 | 10723 ft | 333 kts | 27° |
| 2026-05-07 16:32 | -34.29236 | -58.28322 | 11171 ft | 345 kts | 27° |
| 2026-05-07 16:32 | -34.27176 | -58.26785 | 11758 ft | 351 kts | 27° |
| 2026-05-07 16:32 | -34.25090 | -58.25226 | 12405 ft | 355 kts | 27° |
| 2026-05-07 16:33 | -34.22924 | -58.23820 | 13033 ft | 354 kts | 16° |
| 2026-05-07 16:33 | -34.20614 | -58.22781 | 13640 ft | 357 kts | 15° |
| 2026-05-07 16:33 | -34.18286 | -58.21712 | 14212 ft | 360 kts | 16° |
| 2026-05-07 16:33 | -34.15958 | -58.20580 | 14811 ft | 363 kts | 16° |
| 2026-05-07 16:34 | -34.13611 | -58.19444 | 15385 ft | 365 kts | 15° |
| 2026-05-07 16:34 | -34.11252 | -58.18304 | 15965 ft | 367 kts | 15° |
| 2026-05-07 16:34 | -34.08873 | -58.17156 | 16519 ft | 370 kts | 14° |
| 2026-05-07 16:34 | -34.06481 | -58.16002 | 17076 ft | 372 kts | 14° |
| 2026-05-07 16:35 | -34.04075 | -58.14842 | 17612 ft | 375 kts | 14° |
| 2026-05-07 16:35 | -34.01651 | -58.13674 | 18111 ft | 378 kts | 14° |
| 2026-05-07 16:35 | -33.99209 | -58.12498 | 18585 ft | 379 kts | 14° |
| 2026-05-07 16:35 | -33.96756 | -58.11318 | 19065 ft | 381 kts | 14° |
| 2026-05-07 16:36 | -33.94292 | -58.10133 | 19540 ft | 383 kts | 14° |
| 2026-05-07 16:36 | -33.91818 | -58.08945 | 20012 ft | 385 kts | 14° |
| 2026-05-07 16:36 | -33.89327 | -58.07748 | 20466 ft | 387 kts | 14° |
| 2026-05-07 16:36 | -33.86820 | -58.06545 | 20921 ft | 389 kts | 14° |
| 2026-05-07 16:37 | -33.84304 | -58.05339 | 21362 ft | 391 kts | 14° |
| 2026-05-07 16:37 | -33.81774 | -58.04126 | 21794 ft | 394 kts | 14° |
| 2026-05-07 16:37 | -33.79226 | -58.02906 | 22224 ft | 396 kts | 14° |
| 2026-05-07 16:37 | -33.76668 | -58.01682 | 22658 ft | 398 kts | 14° |
| 2026-05-07 16:38 | -33.74094 | -58.00451 | 23081 ft | 400 kts | 14° |
| 2026-05-07 16:38 | -33.71505 | -57.99214 | 23436 ft | 403 kts | 14° |
| 2026-05-07 16:38 | -33.68902 | -57.97970 | 23783 ft | 405 kts | 14° |
| 2026-05-07 16:38 | -33.66284 | -57.96720 | 24123 ft | 407 kts | 14° |
| 2026-05-07 16:39 | -33.63653 | -57.95466 | 24456 ft | 409 kts | 14° |
| 2026-05-07 16:39 | -33.61009 | -57.94205 | 24769 ft | 411 kts | 14° |
| 2026-05-07 16:39 | -33.58346 | -57.92936 | 25087 ft | 414 kts | 14° |
| 2026-05-07 16:39 | -33.55670 | -57.91661 | 25405 ft | 416 kts | 14° |
| 2026-05-07 16:40 | -33.52979 | -57.90380 | 25708 ft | 418 kts | 14° |
| 2026-05-07 16:40 | -33.50274 | -57.89091 | 25991 ft | 421 kts | 14° |
| 2026-05-07 16:40 | -33.47552 | -57.87794 | 26292 ft | 423 kts | 15° |
| 2026-05-07 16:40 | -33.44822 | -57.86495 | 26592 ft | 425 kts | 15° |
| 2026-05-07 16:41 | -33.42072 | -57.85187 | 26869 ft | 427 kts | 15° |
| 2026-05-07 16:41 | -33.39306 | -57.83871 | 27132 ft | 430 kts | 15° |
| 2026-05-07 16:41 | -33.36524 | -57.82549 | 27413 ft | 432 kts | 15° |
| 2026-05-07 16:41 | -33.33728 | -57.81222 | 27698 ft | 434 kts | 15° |
| 2026-05-07 16:42 | -33.30919 | -57.79889 | 27963 ft | 436 kts | 15° |
| 2026-05-07 16:42 | -33.28098 | -57.78552 | 28203 ft | 439 kts | 15° |
| 2026-05-07 16:42 | -33.25255 | -57.77205 | 28461 ft | 441 kts | 15° |
| 2026-05-07 16:42 | -33.22400 | -57.75853 | 28744 ft | 443 kts | 15° |
| 2026-05-07 16:43 | -33.19531 | -57.74496 | 28996 ft | 446 kts | 15° |
| 2026-05-07 16:43 | -33.16644 | -57.73131 | 29228 ft | 448 kts | 15° |
| 2026-05-07 16:43 | -33.13740 | -57.71759 | 29477 ft | 451 kts | 15° |
| 2026-05-07 16:43 | -33.10826 | -57.70383 | 29734 ft | 452 kts | 15° |
| 2026-05-07 16:44 | -33.07899 | -57.69003 | 29932 ft | 454 kts | 15° |
| 2026-05-07 16:44 | -33.04960 | -57.67618 | 30122 ft | 457 kts | 15° |
| 2026-05-07 16:44 | -33.02004 | -57.66225 | 30323 ft | 459 kts | 15° |
| 2026-05-07 16:44 | -32.99040 | -57.64829 | 30607 ft | 459 kts | 15° |
| 2026-05-07 16:45 | -32.96080 | -57.63437 | 30873 ft | 458 kts | 15° |
| 2026-05-07 16:45 | -32.93115 | -57.62043 | 31105 ft | 459 kts | 15° |
| 2026-05-07 16:45 | -32.90151 | -57.60652 | 31361 ft | 460 kts | 14° |
| 2026-05-07 16:45 | -32.87179 | -57.59256 | 31632 ft | 460 kts | 14° |
| 2026-05-07 16:46 | -32.84213 | -57.57865 | 31892 ft | 459 kts | 14° |
| 2026-05-07 16:46 | -32.81243 | -57.56473 | 32116 ft | 461 kts | 14° |
| 2026-05-07 16:46 | -32.78268 | -57.55080 | 32351 ft | 461 kts | 14° |
| 2026-05-07 16:46 | -32.75291 | -57.53686 | 32590 ft | 461 kts | 14° |
| 2026-05-07 16:47 | -32.72304 | -57.52289 | 32629 ft | 462 kts | 13° |
| 2026-05-07 16:47 | -32.66342 | -57.49503 | 32632 ft | 462 kts | 13° |
| 2026-05-07 16:48 | -32.60369 | -57.46717 | 32605 ft | 462 kts | 13° |
| 2026-05-07 16:48 | -32.54378 | -57.43926 | 32616 ft | 465 kts | 13° |
| 2026-05-07 16:49 | -32.48372 | -57.41132 | 32602 ft | 465 kts | 13° |
| 2026-05-07 16:49 | -32.42349 | -57.38334 | 32611 ft | 467 kts | 13° |
| 2026-05-07 16:50 | -32.36316 | -57.35536 | 32599 ft | 467 kts | 13° |
| 2026-05-07 16:50 | -32.30270 | -57.32735 | 32611 ft | 469 kts | 13° |
| 2026-05-07 16:51 | -32.24200 | -57.29928 | 32600 ft | 469 kts | 13° |
| 2026-05-07 16:51 | -32.18123 | -57.27122 | 32603 ft | 471 kts | 12° |
| 2026-05-07 16:51 | -32.15077 | -57.25716 | 32712 ft | 472 kts | 12° |
| 2026-05-07 16:52 | -32.12029 | -57.24312 | 32983 ft | 471 kts | 12° |
| 2026-05-07 16:52 | -32.08977 | -57.22905 | 33220 ft | 472 kts | 12° |
| 2026-05-07 16:52 | -32.05920 | -57.21498 | 33447 ft | 473 kts | 12° |
| 2026-05-07 16:52 | -32.02864 | -57.20092 | 33683 ft | 473 kts | 12° |
| 2026-05-07 16:53 | -31.99806 | -57.18685 | 33887 ft | 472 kts | 11° |
| 2026-05-07 16:53 | -31.96749 | -57.17280 | 34040 ft | 473 kts | 11° |
| 2026-05-07 16:53 | -31.93688 | -57.15875 | 34228 ft | 474 kts | 11° |
| 2026-05-07 16:53 | -31.90627 | -57.14441 | 34413 ft | 475 kts | 12° |
| 2026-05-07 16:54 | -31.87580 | -57.12970 | 34562 ft | 474 kts | 12° |
| 2026-05-07 16:54 | -31.81466 | -57.10040 | 34594 ft | 476 kts | 12° |
| 2026-05-07 16:55 | -31.75331 | -57.07216 | 34592 ft | 474 kts | 11° |
| 2026-05-07 16:55 | -31.69179 | -57.04420 | 34591 ft | 476 kts | 11° |
| 2026-05-07 16:56 | -31.63011 | -57.01616 | 34587 ft | 476 kts | 11° |
| 2026-05-07 16:56 | -31.53743 | -56.97410 | 34592 ft | 478 kts | 11° |
| 2026-05-07 16:57 | -31.47555 | -56.94607 | 34584 ft | 479 kts | 11° |
| 2026-05-07 16:57 | -31.41344 | -56.91798 | 34588 ft | 479 kts | 11° |
| 2026-05-07 16:58 | -31.35134 | -56.88993 | 34602 ft | 480 kts | 10° |
| 2026-05-07 16:58 | -31.28905 | -56.86184 | 34594 ft | 481 kts | 10° |
| 2026-05-07 16:59 | -31.22670 | -56.83375 | 34594 ft | 482 kts | 10° |
| 2026-05-07 16:59 | -31.16417 | -56.80563 | 34604 ft | 483 kts | 10° |
| 2026-05-07 17:00 | -31.10168 | -56.77757 | 34589 ft | 482 kts | 10° |
| 2026-05-07 17:00 | -31.03904 | -56.74947 | 34605 ft | 484 kts | 10° |
| 2026-05-07 17:01 | -30.97637 | -56.72140 | 34627 ft | 483 kts | 10° |
| 2026-05-07 17:01 | -30.91382 | -56.69342 | 34600 ft | 483 kts | 10° |
| 2026-05-07 17:02 | -30.85123 | -56.66538 | 34616 ft | 483 kts | 11° |
| 2026-05-07 17:02 | -30.78864 | -56.63733 | 34625 ft | 483 kts | 11° |
| 2026-05-07 17:03 | -30.72600 | -56.60929 | 34626 ft | 483 kts | 11° |
| 2026-05-07 17:03 | -30.66331 | -56.58230 | 34626 ft | 481 kts | 10° |
| 2026-05-07 17:04 | -30.60069 | -56.55541 | 34628 ft | 481 kts | 10° |
| 2026-05-07 17:04 | -30.53803 | -56.52853 | 34628 ft | 481 kts | 10° |
| 2026-05-07 17:05 | -30.47544 | -56.50171 | 34634 ft | 481 kts | 10° |
| 2026-05-07 17:05 | -30.41286 | -56.47494 | 34641 ft | 480 kts | 10° |
| 2026-05-07 17:06 | -30.38218 | -56.45874 | 34623 ft | 495 kts | 24° |
| 2026-05-07 17:06 | -30.35384 | -56.43575 | 34655 ft | 500 kts | 26° |
| 2026-05-07 17:06 | -30.29690 | -56.38951 | 34643 ft | 501 kts | 26° |
| 2026-05-07 17:07 | -30.24018 | -56.34286 | 34644 ft | 501 kts | 27° |
| 2026-05-07 17:07 | -30.18374 | -56.29644 | 34988 ft | 488 kts | 28° |
| 2026-05-07 17:08 | -30.15669 | -56.27418 | 34922 ft | 469 kts | 28° |
| 2026-05-07 17:08 | -30.13066 | -56.25281 | 34881 ft | 455 kts | 27° |
| 2026-05-07 17:08 | -30.07946 | -56.21085 | 34750 ft | 451 kts | 27° |
| 2026-05-07 17:09 | -30.02828 | -56.16892 | 34754 ft | 453 kts | 27° |
| 2026-05-07 17:09 | -29.97694 | -56.12692 | 34749 ft | 454 kts | 27° |
| 2026-05-07 17:10 | -29.92538 | -56.08480 | 34757 ft | 456 kts | 27° |
| 2026-05-07 17:10 | -29.87363 | -56.04257 | 34756 ft | 458 kts | 28° |
| 2026-05-07 17:11 | -29.82163 | -56.00019 | 34757 ft | 460 kts | 28° |
| 2026-05-07 17:11 | -29.76936 | -55.95765 | 34753 ft | 463 kts | 28° |
| 2026-05-07 17:12 | -29.71669 | -55.91484 | 34751 ft | 466 kts | 28° |
| 2026-05-07 17:12 | -29.66375 | -55.87186 | 34750 ft | 468 kts | 28° |
| 2026-05-07 17:13 | -29.61055 | -55.82873 | 34748 ft | 470 kts | 28° |
| 2026-05-07 17:13 | -29.55701 | -55.78539 | 34740 ft | 473 kts | 28° |
| 2026-05-07 17:14 | -29.50321 | -55.74189 | 34738 ft | 475 kts | 28° |
| 2026-05-07 17:14 | -29.44918 | -55.69826 | 34736 ft | 477 kts | 28° |
| 2026-05-07 17:15 | -29.39502 | -55.65459 | 34733 ft | 478 kts | 28° |
| 2026-05-07 17:15 | -29.34069 | -55.61084 | 34728 ft | 478 kts | 28° |
| 2026-05-07 17:16 | -29.28632 | -55.56711 | 34727 ft | 479 kts | 28° |
| 2026-05-07 17:16 | -29.23194 | -55.52343 | 34724 ft | 478 kts | 28° |
| 2026-05-07 17:17 | -29.17750 | -55.47977 | 34727 ft | 479 kts | 28° |
| 2026-05-07 17:17 | -29.12303 | -55.43614 | 34724 ft | 479 kts | 28° |
| 2026-05-07 17:18 | -29.06862 | -55.39261 | 34727 ft | 478 kts | 28° |
| 2026-05-07 17:18 | -29.01424 | -55.34916 | 34732 ft | 478 kts | 28° |
| 2026-05-07 17:19 | -28.95991 | -55.30582 | 34728 ft | 477 kts | 27° |
| 2026-05-07 17:19 | -28.90558 | -55.26252 | 34737 ft | 477 kts | 27° |
| 2026-05-07 17:20 | -28.85124 | -55.21927 | 34741 ft | 477 kts | 27° |
| 2026-05-07 17:20 | -28.79694 | -55.17612 | 34741 ft | 477 kts | 27° |
| 2026-05-07 17:21 | -28.74264 | -55.13301 | 34742 ft | 477 kts | 26° |
| 2026-05-07 17:21 | -28.68827 | -55.08992 | 34744 ft | 477 kts | 26° |
| 2026-05-07 17:22 | -28.63395 | -55.04690 | 34747 ft | 477 kts | 26° |
| 2026-05-07 17:22 | -28.57960 | -55.00393 | 34748 ft | 477 kts | 26° |
| 2026-05-07 17:23 | -28.52517 | -54.96095 | 34749 ft | 477 kts | 26° |
| 2026-05-07 17:23 | -28.47075 | -54.91802 | 34748 ft | 477 kts | 26° |
| 2026-05-07 17:24 | -28.41631 | -54.87514 | 34751 ft | 478 kts | 25° |
| 2026-05-07 17:24 | -28.36178 | -54.83223 | 34754 ft | 478 kts | 25° |
| 2026-05-07 17:25 | -28.30721 | -54.78935 | 34756 ft | 478 kts | 25° |
| 2026-05-07 17:25 | -28.25258 | -54.74646 | 34759 ft | 478 kts | 25° |
| 2026-05-07 17:26 | -28.19783 | -54.70400 | 34757 ft | 478 kts | 25° |
| 2026-05-07 17:26 | -28.14297 | -54.66158 | 34765 ft | 479 kts | 25° |
| 2026-05-07 17:27 | -28.08811 | -54.61920 | 34768 ft | 478 kts | 25° |
| 2026-05-07 17:27 | -28.03323 | -54.57685 | 34768 ft | 478 kts | 25° |
| 2026-05-07 17:28 | -27.97833 | -54.53454 | 34768 ft | 478 kts | 25° |
| 2026-05-07 17:28 | -27.92341 | -54.49227 | 34777 ft | 479 kts | 24° |
| 2026-05-07 17:29 | -27.86835 | -54.45023 | 34787 ft | 478 kts | 24° |
| 2026-05-07 17:29 | -27.81301 | -54.40893 | 34790 ft | 478 kts | 24° |
| 2026-05-07 17:30 | -27.75768 | -54.36760 | 34788 ft | 478 kts | 24° |
| 2026-05-07 17:30 | -27.70230 | -54.32626 | 34798 ft | 478 kts | 24° |
| 2026-05-07 17:31 | -27.64688 | -54.28494 | 34796 ft | 478 kts | 24° |
| 2026-05-07 17:31 | -27.59156 | -54.24338 | 34801 ft | 480 kts | 24° |
| 2026-05-07 17:32 | -27.53621 | -54.20168 | 34807 ft | 480 kts | 24° |
| 2026-05-07 17:32 | -27.48084 | -54.16004 | 34812 ft | 479 kts | 24° |
| 2026-05-07 17:33 | -27.42543 | -54.11842 | 34807 ft | 480 kts | 24° |
| 2026-05-07 17:33 | -27.36998 | -54.07682 | 34825 ft | 480 kts | 24° |
| 2026-05-07 17:34 | -27.31457 | -54.03530 | 34831 ft | 480 kts | 24° |
| 2026-05-07 17:34 | -27.25910 | -53.99378 | 34832 ft | 480 kts | 24° |
| 2026-05-07 17:35 | -27.20358 | -53.95228 | 34833 ft | 481 kts | 25° |
| 2026-05-07 17:35 | -27.14791 | -53.91070 | 34838 ft | 482 kts | 25° |
| 2026-05-07 17:36 | -27.09212 | -53.86905 | 34841 ft | 483 kts | 25° |
| 2026-05-07 17:36 | -27.03614 | -53.82731 | 34840 ft | 484 kts | 25° |
| 2026-05-07 17:37 | -26.98003 | -53.78554 | 34861 ft | 486 kts | 25° |
| 2026-05-07 17:37 | -26.92361 | -53.74357 | 34859 ft | 488 kts | 26° |
| 2026-05-07 17:38 | -26.86714 | -53.70163 | 34854 ft | 488 kts | 25° |
| 2026-05-07 17:38 | -26.81058 | -53.65976 | 34858 ft | 488 kts | 25° |
| 2026-05-07 17:39 | -26.75242 | -53.62213 | 34864 ft | 476 kts | 14° |
| 2026-05-07 17:39 | -26.69154 | -53.59175 | 34874 ft | 482 kts | 15° |
| 2026-05-07 17:40 | -26.63043 | -53.56124 | 34876 ft | 483 kts | 15° |
| 2026-05-07 17:40 | -26.56920 | -53.53073 | 34882 ft | 483 kts | 15° |
| 2026-05-07 17:41 | -26.50785 | -53.50021 | 34873 ft | 483 kts | 15° |
| 2026-05-07 17:41 | -26.44648 | -53.46970 | 34897 ft | 485 kts | 15° |
| 2026-05-07 17:42 | -26.38486 | -53.43911 | 34890 ft | 485 kts | 15° |
| 2026-05-07 17:42 | -26.32344 | -53.40865 | 34916 ft | 484 kts | 15° |
| 2026-05-07 17:43 | -26.26200 | -53.37822 | 34924 ft | 484 kts | 15° |
| 2026-05-07 17:43 | -26.20056 | -53.34783 | 34920 ft | 484 kts | 15° |
| 2026-05-07 17:44 | -26.13902 | -53.31743 | 34922 ft | 485 kts | 15° |
| 2026-05-07 17:44 | -26.07738 | -53.28700 | 34925 ft | 486 kts | 15° |
| 2026-05-07 17:45 | -26.01572 | -53.25661 | 34938 ft | 486 kts | 15° |
| 2026-05-07 17:45 | -25.95405 | -53.22624 | 34922 ft | 485 kts | 15° |
| 2026-05-07 17:46 | -25.89242 | -53.19594 | 34930 ft | 485 kts | 15° |
| 2026-05-07 17:46 | -25.83077 | -53.16565 | 34931 ft | 486 kts | 15° |
| 2026-05-07 17:47 | -25.76908 | -53.13537 | 34925 ft | 486 kts | 15° |
| 2026-05-07 17:47 | -25.70737 | -53.10513 | 34933 ft | 486 kts | 15° |
| 2026-05-07 17:48 | -25.64568 | -53.07492 | 34933 ft | 485 kts | 15° |
| 2026-05-07 17:48 | -25.58400 | -53.04477 | 34936 ft | 486 kts | 15° |
| 2026-05-07 17:49 | -25.52223 | -53.01459 | 34933 ft | 486 kts | 15° |
| 2026-05-07 17:49 | -25.46040 | -52.98442 | 34951 ft | 487 kts | 15° |
| 2026-05-07 17:50 | -25.39857 | -52.95429 | 34945 ft | 486 kts | 15° |
| 2026-05-07 17:50 | -25.33681 | -52.92423 | 34947 ft | 486 kts | 15° |
| 2026-05-07 17:51 | -25.27493 | -52.89412 | 34959 ft | 487 kts | 15° |
| 2026-05-07 17:51 | -25.21315 | -52.86413 | 34946 ft | 486 kts | 15° |
| 2026-05-07 17:52 | -25.15132 | -52.83430 | 34964 ft | 486 kts | 15° |
| 2026-05-07 17:52 | -25.08950 | -52.80449 | 34957 ft | 486 kts | 15° |
| 2026-05-07 17:53 | -25.02771 | -52.77472 | 34960 ft | 486 kts | 15° |
| 2026-05-07 17:53 | -24.96593 | -52.74500 | 34961 ft | 485 kts | 15° |
| 2026-05-07 17:54 | -24.90411 | -52.71529 | 34963 ft | 486 kts | 15° |
| 2026-05-07 17:54 | -24.84232 | -52.68561 | 34969 ft | 486 kts | 15° |
| 2026-05-07 17:55 | -24.78060 | -52.65558 | 34953 ft | 485 kts | 15° |
| 2026-05-07 17:55 | -24.71893 | -52.62563 | 34971 ft | 486 kts | 16° |
| 2026-05-07 17:56 | -24.65716 | -52.59567 | 34966 ft | 486 kts | 16° |
| 2026-05-07 17:56 | -24.59542 | -52.56584 | 34967 ft | 486 kts | 15° |
| 2026-05-07 17:57 | -24.54386 | -52.54103 | 34973 ft | 487 kts | 15° |
| 2026-05-07 17:57 | -24.47164 | -52.50630 | 34972 ft | 487 kts | 15° |
| 2026-05-07 17:58 | -24.40976 | -52.47659 | 34985 ft | 487 kts | 15° |
| 2026-05-07 17:58 | -24.34775 | -52.44705 | 34973 ft | 487 kts | 16° |
| 2026-05-07 17:59 | -24.28570 | -52.41752 | 34981 ft | 488 kts | 16° |
| 2026-05-07 17:59 | -24.22357 | -52.38793 | 34982 ft | 488 kts | 16° |
| 2026-05-07 18:00 | -24.16147 | -52.35833 | 34976 ft | 488 kts | 16° |
| 2026-05-07 18:00 | -24.09932 | -52.32874 | 34982 ft | 488 kts | 16° |
| 2026-05-07 18:01 | -24.03707 | -52.29913 | 34975 ft | 489 kts | 16° |
| 2026-05-07 18:01 | -23.97484 | -52.26955 | 34970 ft | 488 kts | 16° |
| 2026-05-07 18:02 | -23.88153 | -52.22524 | 34972 ft | 489 kts | 16° |
| 2026-05-07 18:03 | -23.81929 | -52.19572 | 34966 ft | 488 kts | 17° |
| 2026-05-07 18:03 | -23.75707 | -52.16624 | 34983 ft | 489 kts | 17° |
| 2026-05-07 18:04 | -23.69477 | -52.13676 | 35001 ft | 489 kts | 17° |
| 2026-05-07 18:04 | -23.63249 | -52.10734 | 35013 ft | 489 kts | 17° |
| 2026-05-07 18:05 | -23.57020 | -52.07794 | 35030 ft | 489 kts | 17° |
| 2026-05-07 18:05 | -23.50792 | -52.04859 | 35035 ft | 489 kts | 17° |
| 2026-05-07 18:06 | -23.44563 | -52.01925 | 35041 ft | 489 kts | 17° |
| 2026-05-07 18:06 | -23.38331 | -51.98993 | 35031 ft | 489 kts | 17° |
| 2026-05-07 18:07 | -23.32102 | -51.96066 | 35026 ft | 489 kts | 17° |
| 2026-05-07 18:07 | -23.25872 | -51.93141 | 35012 ft | 488 kts | 18° |
| 2026-05-07 18:08 | -23.19649 | -51.90223 | 34998 ft | 488 kts | 18° |
| 2026-05-07 18:08 | -23.13421 | -51.87305 | 34985 ft | 488 kts | 18° |
| 2026-05-07 18:09 | -23.07195 | -51.84391 | 34987 ft | 488 kts | 18° |
| 2026-05-07 18:09 | -23.00974 | -51.81482 | 34979 ft | 488 kts | 18° |
| 2026-05-07 18:10 | -22.94748 | -51.78573 | 34980 ft | 488 kts | 18° |
| 2026-05-07 18:10 | -22.88523 | -51.75669 | 34982 ft | 488 kts | 18° |
| 2026-05-07 18:11 | -22.82291 | -51.72761 | 34981 ft | 489 kts | 18° |
| 2026-05-07 18:11 | -22.76049 | -51.69850 | 34980 ft | 489 kts | 18° |
| 2026-05-07 18:12 | -22.69800 | -51.66938 | 34985 ft | 490 kts | 18° |
| 2026-05-07 18:12 | -22.63549 | -51.64027 | 34977 ft | 490 kts | 18° |
| 2026-05-07 18:13 | -22.57298 | -51.61120 | 34978 ft | 490 kts | 18° |
| 2026-05-07 18:13 | -22.51040 | -51.58212 | 34981 ft | 491 kts | 18° |
| 2026-05-07 18:14 | -22.44782 | -51.55307 | 34993 ft | 490 kts | 18° |
| 2026-05-07 18:14 | -22.38522 | -51.52404 | 35008 ft | 491 kts | 18° |
| 2026-05-07 18:15 | -22.32256 | -51.49501 | 35022 ft | 491 kts | 19° |
| 2026-05-07 18:15 | -22.25991 | -51.46601 | 35037 ft | 491 kts | 19° |
| 2026-05-07 18:16 | -22.19722 | -51.43702 | 35037 ft | 491 kts | 19° |
| 2026-05-07 18:16 | -22.13577 | -51.40465 | 35045 ft | 494 kts | 23° |
| 2026-05-07 18:17 | -22.07463 | -51.37136 | 35033 ft | 493 kts | 22° |
| 2026-05-07 18:17 | -22.01333 | -51.33827 | 35021 ft | 494 kts | 22° |
| 2026-05-07 18:18 | -21.95195 | -51.30519 | 35010 ft | 494 kts | 22° |
| 2026-05-07 18:18 | -21.89064 | -51.27218 | 34993 ft | 494 kts | 22° |
| 2026-05-07 18:19 | -21.82935 | -51.23921 | 34988 ft | 494 kts | 22° |
| 2026-05-07 18:19 | -21.76803 | -51.20626 | 34987 ft | 494 kts | 22° |
| 2026-05-07 18:20 | -21.70699 | -51.17256 | 34985 ft | 494 kts | 24° |
| 2026-05-07 18:20 | -21.64609 | -51.13849 | 34987 ft | 494 kts | 24° |
| 2026-05-07 18:21 | -21.58521 | -51.10451 | 34984 ft | 494 kts | 24° |
| 2026-05-07 18:21 | -21.52450 | -51.07019 | 34984 ft | 494 kts | 24° |
| 2026-05-07 18:22 | -21.46382 | -51.03575 | 34990 ft | 494 kts | 25° |
| 2026-05-07 18:22 | -21.40321 | -51.00114 | 34987 ft | 494 kts | 25° |
| 2026-05-07 18:23 | -21.34264 | -50.96661 | 34997 ft | 494 kts | 25° |
| 2026-05-07 18:23 | -21.28209 | -50.93212 | 34986 ft | 494 kts | 25° |
| 2026-05-07 18:24 | -21.22150 | -50.89758 | 34987 ft | 494 kts | 25° |
| 2026-05-07 18:24 | -21.16097 | -50.86309 | 34991 ft | 493 kts | 25° |
| 2026-05-07 18:25 | -21.10045 | -50.82869 | 34982 ft | 493 kts | 25° |
| 2026-05-07 18:25 | -21.03997 | -50.79436 | 34994 ft | 493 kts | 25° |
| 2026-05-07 18:26 | -20.97953 | -50.76009 | 34984 ft | 492 kts | 25° |
| 2026-05-07 18:26 | -20.91914 | -50.72588 | 34981 ft | 492 kts | 25° |
| 2026-05-07 18:27 | -20.85886 | -50.69176 | 34993 ft | 491 kts | 25° |
| 2026-05-07 18:27 | -20.79861 | -50.65769 | 34990 ft | 490 kts | 25° |
| 2026-05-07 18:28 | -20.73810 | -50.62446 | 34993 ft | 490 kts | 25° |
| 2026-05-07 18:28 | -20.67761 | -50.59130 | 34987 ft | 490 kts | 25° |
| 2026-05-07 18:29 | -20.61714 | -50.55816 | 34990 ft | 489 kts | 25° |
| 2026-05-07 18:29 | -20.55669 | -50.52507 | 34989 ft | 489 kts | 25° |
| 2026-05-07 18:30 | -20.49625 | -50.49200 | 34983 ft | 489 kts | 25° |
| 2026-05-07 18:30 | -20.43586 | -50.45899 | 34996 ft | 489 kts | 25° |
| 2026-05-07 18:31 | -20.37545 | -50.42600 | 34986 ft | 489 kts | 25° |
| 2026-05-07 18:31 | -20.31500 | -50.39302 | 34993 ft | 489 kts | 25° |
| 2026-05-07 18:32 | -20.25454 | -50.36007 | 34993 ft | 489 kts | 25° |
| 2026-05-07 18:32 | -20.19398 | -50.32708 | 34993 ft | 490 kts | 25° |
| 2026-05-07 18:33 | -20.13340 | -50.29411 | 34996 ft | 490 kts | 25° |
| 2026-05-07 18:33 | -20.07278 | -50.26127 | 34990 ft | 490 kts | 25° |
| 2026-05-07 18:34 | -20.01211 | -50.22842 | 34993 ft | 491 kts | 25° |
| 2026-05-07 18:34 | -19.95135 | -50.19562 | 34991 ft | 491 kts | 24° |
| 2026-05-07 18:35 | -19.89059 | -50.16285 | 34990 ft | 491 kts | 24° |
| 2026-05-07 18:35 | -19.82974 | -50.13006 | 34996 ft | 491 kts | 24° |
| 2026-05-07 18:36 | -19.76890 | -50.09731 | 34994 ft | 491 kts | 24° |
| 2026-05-07 18:36 | -19.70801 | -50.06455 | 34990 ft | 492 kts | 24° |
| 2026-05-07 18:37 | -19.64707 | -50.03179 | 34997 ft | 492 kts | 24° |
| 2026-05-07 18:37 | -19.58611 | -49.99906 | 34999 ft | 492 kts | 24° |
| 2026-05-07 18:38 | -19.52512 | -49.96633 | 34998 ft | 492 kts | 25° |
| 2026-05-07 18:38 | -19.46404 | -49.93359 | 35001 ft | 493 kts | 24° |
| 2026-05-07 18:39 | -19.40299 | -49.90088 | 35005 ft | 493 kts | 25° |
| 2026-05-07 18:39 | -19.34202 | -49.86803 | 35005 ft | 493 kts | 25° |
| 2026-05-07 18:40 | -19.28134 | -49.83448 | 35006 ft | 493 kts | 25° |
| 2026-05-07 18:40 | -19.22052 | -49.80098 | 35012 ft | 493 kts | 25° |
| 2026-05-07 18:41 | -19.15983 | -49.76758 | 35009 ft | 493 kts | 25° |
| 2026-05-07 18:41 | -19.09903 | -49.73415 | 35012 ft | 493 kts | 25° |
| 2026-05-07 18:42 | -19.03837 | -49.70082 | 35009 ft | 493 kts | 26° |
| 2026-05-07 18:42 | -18.97759 | -49.66746 | 35006 ft | 493 kts | 26° |
| 2026-05-07 18:43 | -18.91693 | -49.63420 | 35008 ft | 492 kts | 26° |
| 2026-05-07 18:43 | -18.85626 | -49.60094 | 35014 ft | 492 kts | 26° |
| 2026-05-07 18:44 | -18.79550 | -49.56780 | 35011 ft | 492 kts | 26° |
| 2026-05-07 18:44 | -18.73480 | -49.53476 | 35012 ft | 492 kts | 26° |
| 2026-05-07 18:45 | -18.67410 | -49.50175 | 35013 ft | 492 kts | 26° |
| 2026-05-07 18:45 | -18.61337 | -49.46874 | 35014 ft | 492 kts | 26° |
| 2026-05-07 18:46 | -18.55269 | -49.43579 | 35018 ft | 492 kts | 26° |
| 2026-05-07 18:46 | -18.49201 | -49.40287 | 35011 ft | 491 kts | 26° |
| 2026-05-07 18:47 | -18.43130 | -49.36995 | 35019 ft | 491 kts | 26° |
| 2026-05-07 18:47 | -18.37062 | -49.33709 | 35019 ft | 491 kts | 26° |
| 2026-05-07 18:48 | -18.30994 | -49.30424 | 35024 ft | 492 kts | 26° |
| 2026-05-07 18:48 | -18.24922 | -49.27140 | 35021 ft | 492 kts | 26° |
| 2026-05-07 18:49 | -18.18852 | -49.23860 | 35026 ft | 492 kts | 26° |
| 2026-05-07 18:49 | -18.12775 | -49.20578 | 35027 ft | 492 kts | 26° |
| 2026-05-07 18:50 | -18.06691 | -49.17332 | 35031 ft | 492 kts | 26° |
| 2026-05-07 18:50 | -18.00594 | -49.14087 | 35035 ft | 492 kts | 26° |
| 2026-05-07 18:51 | -17.94500 | -49.10844 | 35033 ft | 492 kts | 26° |
| 2026-05-07 18:51 | -17.88396 | -49.07600 | 35041 ft | 493 kts | 26° |
| 2026-05-07 18:52 | -17.82293 | -49.04359 | 35034 ft | 492 kts | 26° |
| 2026-05-07 18:52 | -17.76190 | -49.01120 | 35037 ft | 493 kts | 26° |
| 2026-05-07 18:52 | -17.73219 | -48.99348 | 35025 ft | 493 kts | 37° |
| 2026-05-07 18:53 | -17.70646 | -48.96995 | 35048 ft | 492 kts | 42° |
| 2026-05-07 18:53 | -17.65543 | -48.92189 | 35034 ft | 495 kts | 42° |
| 2026-05-07 18:54 | -17.60464 | -48.87336 | 35037 ft | 495 kts | 42° |
| 2026-05-07 18:54 | -17.55395 | -48.82482 | 35037 ft | 495 kts | 43° |
| 2026-05-07 18:55 | -17.50320 | -48.77627 | 35040 ft | 495 kts | 43° |
| 2026-05-07 18:55 | -17.45248 | -48.72778 | 35038 ft | 495 kts | 43° |
| 2026-05-07 18:56 | -17.40169 | -48.67926 | 35041 ft | 495 kts | 43° |
| 2026-05-07 18:56 | -17.35097 | -48.63084 | 35042 ft | 495 kts | 43° |
| 2026-05-07 18:57 | -17.30016 | -48.58239 | 35046 ft | 495 kts | 43° |
| 2026-05-07 18:57 | -17.24938 | -48.53399 | 35048 ft | 495 kts | 43° |
| 2026-05-07 18:58 | -17.19852 | -48.48556 | 35050 ft | 495 kts | 43° |
| 2026-05-07 18:58 | -17.14775 | -48.43725 | 35051 ft | 495 kts | 43° |
| 2026-05-07 18:59 | -17.09693 | -48.38892 | 35056 ft | 495 kts | 43° |
| 2026-05-07 18:59 | -17.04604 | -48.34058 | 35054 ft | 495 kts | 43° |
| 2026-05-07 19:00 | -16.99517 | -48.29229 | 35052 ft | 495 kts | 43° |
| 2026-05-07 19:00 | -16.94429 | -48.24401 | 35059 ft | 495 kts | 43° |
| 2026-05-07 19:01 | -16.89334 | -48.19572 | 35066 ft | 496 kts | 43° |
| 2026-05-07 19:01 | -16.84238 | -48.14744 | 35061 ft | 495 kts | 43° |
| 2026-05-07 19:01 | -16.81588 | -48.12470 | 35052 ft | 495 kts | 32° |
| 2026-05-07 19:02 | -16.78537 | -48.10858 | 35070 ft | 493 kts | 19° |
| 2026-05-07 19:02 | -16.75249 | -48.09873 | 35065 ft | 493 kts | 8° |
| 2026-05-07 19:02 | -16.71861 | -48.09508 | 35057 ft | 490 kts | 358° |
| 2026-05-07 19:02 | -16.68473 | -48.09653 | 34778 ft | 485 kts | 353° |
| 2026-05-07 19:03 | -16.65176 | -48.10075 | 34197 ft | 473 kts | 346° |
| 2026-05-07 19:03 | -16.62014 | -48.10845 | 33564 ft | 462 kts | 338° |
| 2026-05-07 19:03 | -16.59145 | -48.12212 | 32926 ft | 450 kts | 330° |
| 2026-05-07 19:03 | -16.56261 | -48.13417 | 32135 ft | 449 kts | 346° |
| 2026-05-07 19:04 | -16.53182 | -48.13962 | 31212 ft | 451 kts | 347° |
| 2026-05-07 19:04 | -16.50133 | -48.14631 | 30568 ft | 444 kts | 346° |
| 2026-05-07 19:04 | -16.47149 | -48.15301 | 30072 ft | 435 kts | 347° |
| 2026-05-07 19:04 | -16.44226 | -48.15948 | 29505 ft | 426 kts | 349° |
| 2026-05-07 19:05 | -16.41304 | -48.16094 | 28888 ft | 419 kts | 7° |
| 2026-05-07 19:05 | -16.38539 | -48.15278 | 28130 ft | 414 kts | 29° |
| 2026-05-07 19:05 | -16.36255 | -48.13493 | 27337 ft | 412 kts | 50° |
| 2026-05-07 19:05 | -16.34689 | -48.11049 | 26590 ft | 404 kts | 69° |
| 2026-05-07 19:06 | -16.33943 | -48.08273 | 25885 ft | 397 kts | 87° |
| 2026-05-07 19:06 | -16.35020 | -48.02878 | 24562 ft | 380 kts | 124° |
| 2026-05-07 19:06 | -16.36741 | -48.00862 | 23938 ft | 372 kts | 146° |
| 2026-05-07 19:07 | -16.39073 | -47.99820 | 23302 ft | 366 kts | 172° |
| 2026-05-07 19:07 | -16.41591 | -47.99742 | 22639 ft | 362 kts | 178° |
| 2026-05-07 19:07 | -16.44086 | -47.99581 | 21975 ft | 358 kts | 174° |
| 2026-05-07 19:07 | -16.46556 | -47.99393 | 21325 ft | 355 kts | 177° |
| 2026-05-07 19:08 | -16.49005 | -47.99231 | 20715 ft | 352 kts | 174° |
| 2026-05-07 19:08 | -16.51418 | -47.99224 | 20309 ft | 344 kts | 187° |
| 2026-05-07 19:08 | -16.53738 | -47.99628 | 19964 ft | 334 kts | 189° |
| 2026-05-07 19:08 | -16.55978 | -48.00075 | 19638 ft | 324 kts | 190° |
| 2026-05-07 19:09 | -16.58166 | -48.00429 | 19262 ft | 315 kts | 178° |
| 2026-05-07 19:09 | -16.60351 | -48.00135 | 18756 ft | 322 kts | 170° |
| 2026-05-07 19:09 | -16.62598 | -48.00177 | 18230 ft | 330 kts | 193° |
| 2026-05-07 19:09 | -16.64660 | -48.01240 | 17618 ft | 338 kts | 219° |
| 2026-05-07 19:10 | -16.66102 | -48.03180 | 16999 ft | 346 kts | 246° |
| 2026-05-07 19:10 | -16.66586 | -48.05631 | 16388 ft | 352 kts | 273° |
| 2026-05-07 19:10 | -16.65990 | -48.08093 | 15784 ft | 356 kts | 298° |
| 2026-05-07 19:10 | -16.64463 | -48.10105 | 15178 ft | 358 kts | 321° |
| 2026-05-07 19:11 | -16.62331 | -48.11442 | 14566 ft | 362 kts | 338° |
| 2026-05-07 19:11 | -16.59930 | -48.12186 | 14058 ft | 356 kts | 350° |
| 2026-05-07 19:11 | -16.57570 | -48.12704 | 13872 ft | 338 kts | 348° |
| 2026-05-07 19:11 | -16.55329 | -48.13218 | 13616 ft | 324 kts | 348° |
| 2026-05-07 19:12 | -16.53178 | -48.13717 | 13308 ft | 311 kts | 348° |
| 2026-05-07 19:12 | -16.51112 | -48.14198 | 13000 ft | 299 kts | 348° |
| 2026-05-07 19:12 | -16.49126 | -48.14662 | 12710 ft | 288 kts | 348° |
| 2026-05-07 19:12 | -16.47210 | -48.15111 | 12436 ft | 279 kts | 348° |
| 2026-05-07 19:13 | -16.45308 | -48.15557 | 12154 ft | 286 kts | 348° |
| 2026-05-07 19:13 | -16.43349 | -48.16017 | 11870 ft | 292 kts | 348° |
| 2026-05-07 19:13 | -16.41365 | -48.16483 | 11585 ft | 293 kts | 348° |
| 2026-05-07 19:13 | -16.39381 | -48.16949 | 11288 ft | 292 kts | 348° |
| 2026-05-07 19:14 | -16.37409 | -48.17412 | 11016 ft | 291 kts | 348° |
| 2026-05-07 19:14 | -16.35432 | -48.17876 | 10734 ft | 292 kts | 348° |
| 2026-05-07 19:14 | -16.33459 | -48.18340 | 10450 ft | 291 kts | 348° |
| 2026-05-07 19:14 | -16.31492 | -48.18802 | 10184 ft | 288 kts | 347° |
| 2026-05-07 19:15 | -16.29571 | -48.19253 | 10077 ft | 279 kts | 347° |
| 2026-05-07 19:15 | -16.27698 | -48.19681 | 9906 ft | 276 kts | 348° |
| 2026-05-07 19:15 | -16.25825 | -48.20101 | 9602 ft | 275 kts | 348° |
| 2026-05-07 19:15 | -16.23970 | -48.20517 | 9312 ft | 272 kts | 348° |
| 2026-05-07 19:16 | -16.22141 | -48.20928 | 9086 ft | 267 kts | 348° |
| 2026-05-07 19:16 | -16.20337 | -48.21333 | 8837 ft | 264 kts | 348° |
| 2026-05-07 19:16 | -16.18557 | -48.21733 | 8585 ft | 261 kts | 348° |
| 2026-05-07 19:16 | -16.16800 | -48.22128 | 8359 ft | 257 kts | 348° |
| 2026-05-07 19:17 | -16.15048 | -48.22316 | 8075 ft | 253 kts | 8° |
| 2026-05-07 19:17 | -16.13356 | -48.21912 | 7864 ft | 248 kts | 13° |
| 2026-05-07 19:17 | -16.11696 | -48.21504 | 7639 ft | 243 kts | 13° |
| 2026-05-07 19:17 | -16.10071 | -48.21099 | 7435 ft | 239 kts | 13° |
| 2026-05-07 19:18 | -16.08473 | -48.20696 | 7216 ft | 234 kts | 14° |
| 2026-05-07 19:18 | -16.06898 | -48.20295 | 7032 ft | 233 kts | 13° |
| 2026-05-07 19:18 | -16.05320 | -48.19892 | 6793 ft | 235 kts | 14° |
| 2026-05-07 19:18 | -16.03730 | -48.19486 | 6541 ft | 236 kts | 14° |
| 2026-05-07 19:19 | -16.02149 | -48.19080 | 6296 ft | 233 kts | 14° |
| 2026-05-07 19:19 | -16.00584 | -48.18680 | 6061 ft | 230 kts | 14° |
| 2026-05-07 19:19 | -15.99030 | -48.18336 | 5863 ft | 230 kts | 4° |
| 2026-05-07 19:19 | -15.97433 | -48.18400 | 5712 ft | 231 kts | 357° |
| 2026-05-07 19:20 | -15.95839 | -48.18512 | 5503 ft | 230 kts | 357° |
| 2026-05-07 19:20 | -15.94264 | -48.18535 | 5421 ft | 220 kts | 14° |
| 2026-05-07 19:20 | -15.92998 | -48.17788 | 5316 ft | 208 kts | 50° |
| 2026-05-07 19:20 | -15.92232 | -48.16531 | 5336 ft | 208 kts | 57° |
| 2026-05-07 19:21 | -15.91487 | -48.15250 | 5306 ft | 204 kts | 57° |
| 2026-05-07 19:21 | -15.90782 | -48.14038 | 5251 ft | 190 kts | 57° |
| 2026-05-07 19:21 | -15.90114 | -48.12881 | 5120 ft | 186 kts | 57° |
| 2026-05-07 19:21 | -15.89465 | -48.11720 | 5092 ft | 186 kts | 63° |
| 2026-05-07 19:22 | -15.89123 | -48.10476 | 5138 ft | 179 kts | 79° |
| 2026-05-07 19:22 | -15.89022 | -48.09193 | 5167 ft | 175 kts | 84° |
| 2026-05-07 19:22 | -15.88955 | -48.07954 | 5172 ft | 170 kts | 83° |
| 2026-05-07 19:22 | -15.88883 | -48.06750 | 5225 ft | 166 kts | 82° |
| 2026-05-07 19:23 | -15.88807 | -48.05548 | 5185 ft | 168 kts | 84° |
| 2026-05-07 19:23 | -15.88728 | -48.04346 | 5190 ft | 167 kts | 83° |
| 2026-05-07 19:23 | -15.88653 | -48.03151 | 5152 ft | 165 kts | 83° |
| 2026-05-07 19:23 | -15.88578 | -48.01972 | 4966 ft | 163 kts | 82° |
| 2026-05-07 19:24 | -15.88503 | -48.00805 | 4836 ft | 162 kts | 83° |
| 2026-05-07 19:24 | -15.88432 | -47.99650 | 4619 ft | 160 kts | 82° |
| 2026-05-07 19:24 | -15.88355 | -47.98504 | 4436 ft | 159 kts | 82° |
| 2026-05-07 19:24 | -15.88282 | -47.97373 | 4220 ft | 156 kts | 84° |
| 2026-05-07 19:25 | -15.88215 | -47.96256 | 4018 ft | 154 kts | 82° |
| 2026-05-07 19:25 | -15.88134 | -47.95149 | 3738 ft | 154 kts | 83° |
| 2026-05-07 19:25 | -15.88067 | -47.94050 | 3542 ft | 149 kts | 83° |
| 2026-05-07 19:25 | -15.88003 | -47.93072 | 3486 ft | 118 kts | 85° |
| 2026-05-07 19:26 | -15.87964 | -47.92442 | 3481 ft | 59 kts | 86° |
| 2026-05-07 19:26 | -15.87946 | -47.92152 | 3475 ft | 31 kts | 86° |
| 2026-05-07 19:26 | -15.87932 | -47.91973 | 3470 ft | 23 kts | 79° |
| 2026-05-07 19:26 | -15.87889 | -47.91837 | 3470 ft | 19 kts | 63° |
| 2026-05-07 19:27 | -15.87834 | -47.91740 | 3466 ft | 14 kts | 62° |
| 2026-05-07 19:27 | -15.87777 | -47.91655 | 3463 ft | 13 kts | 55° |
| 2026-05-07 19:27 | -15.87729 | -47.91584 | 3462 ft | 12 kts | 54° |
| 2026-05-07 19:27 | -15.87662 | -47.91553 | 3462 ft | 11 kts | 352° |
| 2026-05-07 19:28 | -15.87584 | -47.91559 | 3463 ft | 12 kts | 356° |
| 2026-05-07 19:28 | -15.87504 | -47.91563 | 3465 ft | 11 kts | 357° |
| 2026-05-07 19:28 | -15.87432 | -47.91568 | 3467 ft | 10 kts | 354° |
| 2026-05-07 19:28 | -15.87360 | -47.91574 | 3467 ft | 11 kts | 356° |
| 2026-05-07 19:29 | -15.87282 | -47.91580 | 3467 ft | 12 kts | 356° |
| 2026-05-07 19:29 | -15.87198 | -47.91585 | 3467 ft | 12 kts | 356° |
| 2026-05-07 19:29 | -15.87110 | -47.91590 | 3467 ft | 13 kts | 358° |
| 2026-05-07 19:29 | -15.87018 | -47.91596 | 3467 ft | 14 kts | 355° |
| 2026-05-07 19:30 | -15.86922 | -47.91603 | 3467 ft | 14 kts | 356° |
| 2026-05-07 19:30 | -15.86822 | -47.91609 | 3466 ft | 15 kts | 356° |
| 2026-05-07 19:30 | -15.86720 | -47.91616 | 3468 ft | 15 kts | 355° |
| 2026-05-07 19:30 | -15.86681 | -47.91682 | 3466 ft | 12 kts | 286° |
| 2026-05-07 19:31 | -15.86625 | -47.91733 | 3467 ft | 11 kts | 310° |
| 2026-05-07 19:31 | -15.86612 | -47.91812 | 3467 ft | 12 kts | 268° |
| 2026-05-07 19:31 | -15.86618 | -47.91900 | 3466 ft | 13 kts | 265° |
| 2026-05-07 19:31 | -15.86625 | -47.91995 | 3464 ft | 14 kts | 265° |
| 2026-05-07 19:32 | -15.86630 | -47.92091 | 3466 ft | 13 kts | 264° |
| 2026-05-07 19:32 | -15.86668 | -47.92153 | 3466 ft | 8 kts | 212° |
| 2026-05-07 19:32 | -15.86711 | -47.92163 | 3464 ft | 5 kts | 155° |
| 2026-05-07 19:32 | -15.86735 | -47.92139 | 3467 ft | 5 kts | 129° |
| 2026-05-07 19:33 | -15.86751 | -47.92115 | 3467 ft | 2 kts | 122° |
| 2026-05-07 19:33 | -15.86756 | -47.92106 | 3467 ft | 1 kts | 122° |
| 2026-05-07 19:33 | -15.86759 | -47.92102 | 3467 ft | 0 kts | 122° |
| 2026-05-07 19:33 | -15.86759 | -47.92101 | 3467 ft | 0 kts | 122° |